Aérodrome :
LOGIN :

S'inscrire | Disclaimer

   EN    FR    IT 

 










Légende :    VFR   VFR Marginal   IFR   IFR Intensif   IFR Très Intensif
Visi : 
Plafond : 
>= 8 km
>= 3000ft
5 à 8 km
1000 à 3000 ft
1500m à 5 km
500 à 1000 ft
800 à 1500m
200 à 500 ft
< 800m
< 200 ft
Symboles :   Orages  Brouillard  Fortes neiges  Fortes précipitations  Vent > 20 kt
SIGMETs :   Divers  Orages  Givrage  Turbulence  Onde Orograph.  Cendres Volcan.






- Altitude de l'aérodrome : 1041 ft
- Code IATA : XMF


LFSM - Montbéliard-Courcelles

METARs EXPIRÉS :
  • 201800Z AUTO 06007KT CAVOK 29/17 Q1008
  • 201730Z AUTO 07008KT CAVOK 30/17 Q1007
  • 201700Z AUTO 06007KT 040V100 CAVOK 30/17 Q1008
  • 201630Z AUTO 06008KT CAVOK 30/16 Q1008
  • 201600Z AUTO 06005KT 020V110 CAVOK 31/18 Q1008

TAF N/A



MET'MAP, la Météo Aéronautique d'un coup d'oeil ! - Copyright ORBIFLY Décembre 2007 - Disclaimer

ORBIFLY MET'MAP TEAM :

Programmation & Développement : Alexandra Zaïnal
Sur une idée originale de : Baudouin d'Aumeries
Soutien technique & logistique : Manuel Goepfert
Assistance : Marc-Olivier Méhu




SOURCES & CREDITS :

   NOAA